Time;durP1;ratioP1;P1;durP2;ratioP2;P2;SDS_P1;SDS_P2;PMS_P1;PMS_P2;Temp;Humidity;BMP_temperature;BMP_pressure;BME280_temperature;BME280_humidity;BME280_pressure;Samples;Min_cycle;Max_cycle;Signal;HPM_P1;HPM_P2
2022/07/10 00:01:10;;;;;;;2.67;1.15;;;15.90;4.40;;;;;;5027769;28;34239;-77
2022/07/10 00:03:36;;;;;;;2.58;1.00;;;15.80;4.50;;;;;;5045079;28;34235;-76
2022/07/10 00:06:02;;;;;;;2.10;0.90;;;15.70;4.70;;;;;;5045303;28;34066;-77
2022/07/10 00:08:28;;;;;;;5.35;1.42;;;15.70;4.80;;;;;;5044279;28;36605;-76
2022/07/10 00:10:53;;;;;;;3.55;1.10;;;15.60;4.80;;;;;;5044837;28;34229;-76
2022/07/10 00:13:19;;;;;;;2.08;1.10;;;15.60;5.00;;;;;;5044588;28;34192;-77
2022/07/10 00:15:45;;;;;;;2.38;1.02;;;15.60;4.90;;;;;;5027875;28;34271;-77
2022/07/10 00:18:11;;;;;;;1.23;0.88;;;15.50;5.00;;;;;;5044553;28;36808;-77
2022/07/10 00:20:37;;;;;;;1.48;1.08;;;15.50;5.10;;;;;;5044428;28;34294;-76
2022/07/10 00:23:03;;;;;;;1.42;1.23;;;15.50;5.00;;;;;;5027949;28;34188;-77
2022/07/10 00:25:30;;;;;;;2.70;1.20;;;15.40;5.00;;;;;;5027839;28;34195;-76
2022/07/10 00:27:55;;;;;;;4.28;1.10;;;15.30;5.20;;;;;;5062130;28;34113;-77
2022/07/10 00:30:22;;;;;;;1.10;0.98;;;15.30;5.20;;;;;;5009410;28;34051;-78
2022/07/10 00:32:48;;;;;;;1.15;1.00;;;15.30;5.40;;;;;;5025422;28;34145;-78
2022/07/10 00:35:14;;;;;;;1.33;1.08;;;15.20;5.50;;;;;;5005901;28;33994;-77
2022/07/10 00:37:40;;;;;;;3.97;1.30;;;15.10;5.60;;;;;;5004497;28;35621;-77
2022/07/10 00:40:07;;;;;;;1.30;1.20;;;15.10;5.80;;;;;;5004833;28;34186;-77
2022/07/10 00:42:33;;;;;;;1.60;1.20;;;15.00;5.90;;;;;;5021899;28;34121;-77
2022/07/10 00:44:59;;;;;;;5.05;1.00;;;14.90;5.90;;;;;;5037773;28;34286;-77
2022/07/10 00:47:25;;;;;;;3.40;1.08;;;14.90;6.00;;;;;;5003012;28;35614;-77
2022/07/10 00:49:51;;;;;;;3.75;1.30;;;14.80;6.00;;;;;;5004290;28;34239;-77
2022/07/10 00:52:18;;;;;;;1.10;1.10;;;14.80;6.00;;;;;;5022295;28;34121;-77
2022/07/10 00:54:46;;;;;;;1.95;1.40;;;14.70;6.30;;;;;;5004543;28;34089;-77
2022/07/10 00:57:15;;;;;;;1.70;1.35;;;14.70;6.40;;;;;;5020719;28;35385;-77
2022/07/10 00:59:41;;;;;;;2.47;1.40;;;14.60;6.60;;;;;;5004433;28;34006;-77
2022/07/10 01:02:08;;;;;;;3.50;1.40;;;14.60;6.40;;;;;;5014038;28;34373;-77
2022/07/10 01:04:34;;;;;;;3.35;1.25;;;14.50;6.50;;;;;;5061518;28;34147;-77
2022/07/10 01:06:59;;;;;;;4.43;1.30;;;14.50;6.60;;;;;;5061489;28;34445;-76
2022/07/10 01:09:26;;;;;;;1.58;1.40;;;14.50;6.80;;;;;;5061248;28;34398;-76
2022/07/10 01:11:52;;;;;;;2.78;1.50;;;14.40;6.80;;;;;;5062145;28;33758;-77
2022/07/10 01:14:19;;;;;;;1.40;1.30;;;14.30;6.90;;;;;;5061587;28;34146;-77
2022/07/10 01:16:45;;;;;;;1.33;1.20;;;14.30;7.00;;;;;;5043585;27;35179;-76
2022/07/10 01:19:11;;;;;;;3.00;1.30;;;14.20;7.00;;;;;;5061301;28;34173;-76
2022/07/10 01:21:37;;;;;;;3.50;1.42;;;14.20;7.00;;;;;;5061452;28;34078;-76
2022/07/10 01:24:07;;;;;;;4.35;1.48;;;14.10;7.60;;;;;;5044284;28;34162;-76
2022/07/10 01:26:34;;;;;;;1.13;1.05;;;14.10;7.50;;;;;;5043578;28;36755;-77
2022/07/10 01:29:03;;;;;;;1.67;1.20;;;14.10;7.10;;;;;;5043583;28;34121;-76
2022/07/10 01:31:29;;;;;;;2.33;1.20;;;14.00;7.50;;;;;;5043445;28;34021;-76
2022/07/10 01:33:56;;;;;;;2.05;1.27;;;14.00;7.10;;;;;;5043729;28;34222;-76
2022/07/10 01:36:22;;;;;;;4.10;1.27;;;13.90;7.10;;;;;;5061228;28;35283;-76
2022/07/10 01:38:51;;;;;;;0.90;0.90;;;14.00;7.20;;;;;;5061364;28;34260;-77
2022/07/10 01:41:17;;;;;;;1.20;1.10;;;13.90;7.30;;;;;;5026878;28;34018;-77
2022/07/10 01:43:44;;;;;;;3.25;0.88;;;13.90;7.20;;;;;;5043396;28;34517;-76
2022/07/10 01:46:11;;;;;;;4.75;1.13;;;13.80;7.10;;;;;;5026517;28;35587;-76
2022/07/10 01:48:39;;;;;;;1.50;1.10;;;13.80;7.40;;;;;;5043525;28;34215;-76
2022/07/10 01:51:06;;;;;;;2.03;1.10;;;13.80;7.40;;;;;;5043236;28;34304;-77
2022/07/10 01:53:32;;;;;;;1.17;0.95;;;13.70;7.30;;;;;;5043495;28;34109;-77
2022/07/10 01:56:00;;;;;;;3.33;1.05;;;13.70;7.40;;;;;;5043319;28;36375;-77
2022/07/10 01:58:27;;;;;;;1.40;1.05;;;13.70;7.50;;;;;;5061043;28;34473;-76
2022/07/10 02:00:53;;;;;;;2.58;1.08;;;13.60;7.50;;;;;;5049951;28;34142;-76
2022/07/10 02:06:00;;;;;;;3.90;1.15;;;13.60;7.50;;;;;;5051613;28;34631;-76
2022/07/10 02:08:26;;;;;;;1.40;0.90;;;13.60;7.50;;;;;;5033095;28;34080;-77
2022/07/10 02:10:51;;;;;;;1.27;1.10;;;13.50;7.50;;;;;;5050548;28;34172;-76
2022/07/10 02:13:20;;;;;;;1.73;1.15;;;13.50;7.60;;;;;;5033759;28;34490;-77
2022/07/10 02:15:47;;;;;;;3.20;1.20;;;13.50;7.60;;;;;;5050612;28;34447;-76
2022/07/10 02:18:13;;;;;;;2.15;1.20;;;13.40;7.60;;;;;;5033340;28;34268;-77
2022/07/10 02:20:39;;;;;;;1.60;1.00;;;13.40;7.70;;;;;;5050101;28;34114;-77
2022/07/10 02:23:06;;;;;;;1.77;1.00;;;13.30;7.80;;;;;;5049995;27;34195;-76
2022/07/10 02:25:33;;;;;;;1.63;1.00;;;13.30;7.80;;;;;;5049635;28;36449;-76
2022/07/10 02:27:59;;;;;;;4.60;1.08;;;13.20;8.00;;;;;;5067866;27;34278;-77
2022/07/10 02:30:25;;;;;;;2.95;0.90;;;13.10;8.00;;;;;;5049392;28;34166;-77
2022/07/10 02:32:51;;;;;;;0.90;0.90;;;13.10;8.10;;;;;;5050292;28;34085;-77
2022/07/10 02:35:17;;;;;;;2.95;1.38;;;13.10;8.10;;;;;;5049604;27;35464;-76
2022/07/10 02:37:43;;;;;;;2.85;1.10;;;13.00;8.10;;;;;;5049803;28;34237;-77
2022/07/10 02:40:10;;;;;;;1.13;1.13;;;13.00;8.20;;;;;;5073211;27;34134;-76
2022/07/10 02:42:36;;;;;;;2.15;1.13;;;12.90;8.30;;;;;;5134297;27;34381;-76
2022/07/10 02:45:02;;;;;;;1.00;0.90;;;12.90;8.40;;;;;;5134697;27;34291;-76
2022/07/10 02:47:28;;;;;;;2.50;1.17;;;12.80;8.40;;;;;;5133851;27;34166;-77
2022/07/10 02:49:54;;;;;;;3.67;1.27;;;12.80;8.50;;;;;;5152859;27;34126;-76
2022/07/10 02:52:20;;;;;;;3.17;1.08;;;12.70;8.60;;;;;;5116784;27;34606;-77
2022/07/10 02:54:46;;;;;;;2.72;1.33;;;12.70;8.70;;;;;;5152271;27;34336;-77
2022/07/10 02:57:12;;;;;;;2.67;0.90;;;12.60;8.60;;;;;;5152359;27;34028;-76
2022/07/10 02:59:38;;;;;;;2.53;1.00;;;12.60;8.70;;;;;;5152152;27;34293;-76
2022/07/10 03:02:04;;;;;;;1.58;0.98;;;12.60;8.70;;;;;;5031270;28;34543;-76
2022/07/10 03:04:30;;;;;;;1.23;1.10;;;12.50;8.80;;;;;;5008597;28;36662;-76
2022/07/10 03:06:56;;;;;;;3.03;1.17;;;12.40;8.80;;;;;;5042708;28;34234;-76
2022/07/10 03:09:22;;;;;;;2.65;1.30;;;12.40;8.80;;;;;;5046692;28;34217;-77
2022/07/10 03:11:48;;;;;;;1.65;1.30;;;12.40;9.00;;;;;;5025804;28;34453;-77
2022/07/10 03:14:14;;;;;;;1.55;0.93;;;12.40;9.00;;;;;;5042201;28;35856;-77
2022/07/10 03:16:39;;;;;;;1.70;1.00;;;12.30;9.10;;;;;;5042214;28;34170;-77
2022/07/10 03:19:05;;;;;;;3.55;1.15;;;12.30;9.20;;;;;;5041886;28;34031;-77
2022/07/10 03:21:31;;;;;;;1.88;1.23;;;12.20;9.20;;;;;;5042484;28;34121;-77
2022/07/10 03:23:57;;;;;;;2.60;1.23;;;12.20;9.30;;;;;;5042135;28;36555;-77
2022/07/10 03:26:23;;;;;;;2.15;0.90;;;12.20;9.20;;;;;;5025868;28;34381;-77
2022/07/10 03:28:49;;;;;;;2.42;1.00;;;12.10;9.80;;;;;;5009574;28;34097;-77
2022/07/10 03:31:15;;;;;;;1.30;1.00;;;12.10;9.20;;;;;;5043026;28;34063;-77
2022/07/10 03:33:40;;;;;;;2.00;1.20;;;12.10;9.40;;;;;;5042770;28;34941;-77
2022/07/10 03:36:06;;;;;;;1.92;1.20;;;12.10;9.40;;;;;;4996135;28;33826;-77
2022/07/10 03:38:32;;;;;;;1.90;1.10;;;12.00;9.50;;;;;;5021312;28;34305;-77
2022/07/10 03:40:59;;;;;;;0.90;0.90;;;12.00;9.50;;;;;;5035335;27;34322;-77
2022/07/10 03:43:24;;;;;;;2.90;0.95;;;11.90;9.50;;;;;;4988249;28;36092;-77
2022/07/10 03:45:51;;;;;;;1.10;0.90;;;11.90;9.50;;;;;;5022878;28;34130;-77
2022/07/10 03:48:17;;;;;;;1.83;0.90;;;11.90;9.60;;;;;;5013608;28;34187;-77
2022/07/10 03:50:43;;;;;;;1.40;1.30;;;11.80;9.60;;;;;;5042939;28;34262;-77
2022/07/10 03:53:09;;;;;;;2.80;1.10;;;11.80;9.80;;;;;;5019462;28;35596;-77
2022/07/10 03:55:35;;;;;;;1.42;1.00;;;11.80;9.80;;;;;;5004857;27;34221;-77
2022/07/10 03:58:02;;;;;;;1.23;1.00;;;11.80;10.00;;;;;;5021114;28;34305;-77
2022/07/10 04:00:33;;;;;;;2.55;1.30;;;11.80;10.00;;;;;;5024851;28;34440;-77
2022/07/10 04:03:01;;;;;;;2.17;1.20;;;11.80;10.00;;;;;;5041475;28;34375;-77
2022/07/10 04:05:28;;;;;;;1.08;0.98;;;11.80;10.00;;;;;;5041364;28;34376;-77
2022/07/10 04:07:56;;;;;;;2.65;1.30;;;11.80;10.00;;;;;;5042554;28;34205;-77
2022/07/10 04:10:23;;;;;;;0.95;0.90;;;11.80;10.00;;;;;;5008283;28;34107;-77
2022/07/10 04:12:49;;;;;;;1.20;1.05;;;11.80;10.20;;;;;;5041981;28;34236;-77
2022/07/10 04:15:16;;;;;;;3.33;1.13;;;11.80;10.20;;;;;;5024185;28;34099;-77
2022/07/10 04:17:42;;;;;;;1.50;1.17;;;11.80;10.20;;;;;;5024468;28;34206;-77
2022/07/10 04:20:08;;;;;;;1.27;1.00;;;11.80;10.30;;;;;;5042288;28;34373;-77
2022/07/10 04:22:34;;;;;;;3.03;1.40;;;11.80;10.30;;;;;;5022451;28;35918;-77
2022/07/10 04:25:00;;;;;;;1.08;1.08;;;11.80;10.40;;;;;;5038931;28;34265;-77
2022/07/10 04:27:26;;;;;;;1.48;1.10;;;11.80;10.40;;;;;;5041530;28;34232;-77
2022/07/10 04:29:52;;;;;;;4.93;1.50;;;11.80;10.50;;;;;;5024968;28;34309;-77
2022/07/10 04:32:18;;;;;;;1.35;1.25;;;11.80;10.40;;;;;;5023763;28;36418;-77
2022/07/10 04:34:45;;;;;;;1.83;1.30;;;11.80;10.50;;;;;;5041999;28;34099;-77
2022/07/10 04:37:11;;;;;;;0.90;0.80;;;11.80;10.40;;;;;;5024094;28;34429;-77
2022/07/10 04:39:38;;;;;;;2.80;1.40;;;11.90;10.50;;;;;;5024303;28;34649;-77
2022/07/10 04:42:05;;;;;;;1.73;1.20;;;11.90;10.70;;;;;;5041568;28;34987;-77
2022/07/10 04:44:31;;;;;;;1.23;1.13;;;11.90;10.70;;;;;;5023678;28;34168;-77
2022/07/10 04:46:58;;;;;;;3.28;1.30;;;11.80;10.80;;;;;;5040730;28;34071;-77
2022/07/10 04:49:24;;;;;;;3.60;1.70;;;11.80;10.80;;;;;;5040390;28;34189;-77
2022/07/10 04:51:50;;;;;;;1.50;1.35;;;11.90;10.90;;;;;;5041545;28;34169;-77
2022/07/10 04:54:16;;;;;;;1.77;1.58;;;11.90;11.00;;;;;;5023278;28;34319;-77
2022/07/10 04:56:43;;;;;;;1.48;1.38;;;11.90;11.10;;;;;;5023727;28;34179;-77
2022/07/10 04:59:10;;;;;;;2.38;1.33;;;11.90;11.00;;;;;;5023755;28;34462;-77
2022/07/10 05:01:37;;;;;;;1.95;1.33;;;11.90;11.10;;;;;;5040911;28;34361;-77
2022/07/10 05:04:03;;;;;;;1.23;1.13;;;12.00;11.00;;;;;;5041728;28;34081;-77
2022/07/10 05:06:29;;;;;;;1.90;1.17;;;12.00;11.00;;;;;;5007040;28;34592;-77
2022/07/10 05:08:55;;;;;;;1.85;1.25;;;12.10;11.10;;;;;;5023641;28;34085;-77
2022/07/10 05:11:22;;;;;;;1.40;1.20;;;12.10;11.10;;;;;;5022994;28;36229;-77
2022/07/10 05:13:48;;;;;;;1.92;1.10;;;12.10;11.10;;;;;;5024035;28;34266;-77
2022/07/10 05:16:15;;;;;;;3.00;1.40;;;12.20;11.10;;;;;;5023812;28;34097;-77
2022/07/10 05:18:41;;;;;;;1.92;1.40;;;12.20;11.10;;;;;;5023404;28;34144;-77
2022/07/10 05:21:07;;;;;;;4.18;1.42;;;12.30;11.10;;;;;;5040189;28;35830;-77
2022/07/10 05:23:34;;;;;;;2.83;1.77;;;12.50;11.20;;;;;;5024090;28;34024;-77
2022/07/10 05:26:00;;;;;;;1.75;1.55;;;12.90;11.00;;;;;;5023632;28;34186;-77
2022/07/10 05:28:26;;;;;;;2.00;1.70;;;13.60;10.30;;;;;;5041278;28;34012;-77
2022/07/10 05:30:52;;;;;;;2.50;1.40;;;14.60;9.10;;;;;;5023093;28;36226;-77
2022/07/10 05:33:18;;;;;;;2.00;1.35;;;15.80;7.60;;;;;;5023086;28;34170;-77
2022/07/10 05:35:45;;;;;;;4.13;1.20;;;16.90;6.00;;;;;;5023863;28;34174;-77
2022/07/10 05:38:11;;;;;;;5.60;1.35;;;18.10;4.60;;;;;;5040122;28;34431;-77
2022/07/10 05:40:38;;;;;;;3.38;1.10;;;19.10;3.20;;;;;;5039885;28;35958;-78
2022/07/10 05:43:04;;;;;;;2.53;0.80;;;20.00;2.10;;;;;;5024942;28;34183;-78
2022/07/10 05:45:30;;;;;;;3.17;0.88;;;20.90;1.10;;;;;;5007648;28;34473;-78
2022/07/10 05:47:56;;;;;;;1.88;0.80;;;21.70;1.00;;;;;;5042502;28;33973;-78
2022/07/10 05:50:22;;;;;;;2.13;1.00;;;22.40;1.00;;;;;;5024746;28;35622;-78
2022/07/10 05:52:48;;;;;;;0.50;0.50;;;23.00;1.00;;;;;;5024267;28;34155;-79
2022/07/10 05:55:15;;;;;;;4.25;0.80;;;23.50;1.00;;;;;;5025644;28;33675;-78
2022/07/10 05:57:41;;;;;;;3.20;0.88;;;24.10;1.00;;;;;;5039547;28;34229;-79
2022/07/10 06:00:08;;;;;;;0.73;0.70;;;24.60;1.00;;;;;;5023115;28;34127;-78
2022/07/10 06:02:34;;;;;;;2.28;0.75;;;25.10;1.00;;;;;;5020606;28;34084;-79
2022/07/10 06:05:00;;;;;;;1.75;0.70;;;25.40;1.00;;;;;;5022017;28;34294;-78
2022/07/10 06:07:27;;;;;;;1.88;0.68;;;25.70;1.00;;;;;;5021662;28;34183;-77
2022/07/10 06:09:55;;;;;;;2.15;0.60;;;25.90;1.00;;;;;;5020797;28;35656;-78
2022/07/10 06:12:21;;;;;;;1.02;0.63;;;26.00;1.00;;;;;;5020487;28;34228;-77
2022/07/10 06:14:47;;;;;;;2.78;0.68;;;26.20;1.00;;;;;;5004279;28;34191;-79
2022/07/10 06:17:13;;;;;;;1.95;0.75;;;26.30;1.00;;;;;;5004713;28;34517;-78
2022/07/10 06:19:38;;;;;;;4.90;0.70;;;26.50;1.00;;;;;;5021792;28;34069;-77
2022/07/10 06:24:45;;;;;;;1.92;0.75;;;27.00;1.00;;;;;;5020601;28;34128;-78
2022/07/10 06:27:12;;;;;;;0.98;0.65;;;27.30;1.00;;;;;;5023084;28;34012;-78
2022/07/10 06:29:37;;;;;;;2.28;0.70;;;27.60;1.00;;;;;;5022186;28;34187;-79
2022/07/10 06:32:04;;;;;;;1.20;0.90;;;27.90;1.00;;;;;;5038324;28;34124;-79
2022/07/10 06:34:33;;;;;;;1.13;0.50;;;28.10;1.00;;;;;;5021066;28;34079;-79
2022/07/10 06:37:00;;;;;;;1.70;0.60;;;28.50;1.00;;;;;;5005050;28;34181;-79
2022/07/10 06:39:26;;;;;;;1.27;0.57;;;28.70;1.00;;;;;;5022480;28;34134;-79
2022/07/10 06:41:52;;;;;;;1.17;0.63;;;28.90;1.00;;;;;;5032163;28;34188;-79
2022/07/10 06:44:18;;;;;;;2.03;0.63;;;29.10;1.00;;;;;;5103326;27;34148;-78
2022/07/10 06:47:55;;;;;;;1.65;0.70;;;29.20;1.00;;;;;;5128611;27;34081;-79
2022/07/10 06:49:29;;;;;;;0.90;0.55;;;29.30;1.00;;;;;;5042591;28;35367;-78
2022/07/10 06:51:56;;;;;;;1.65;0.70;;;28.90;1.00;;;;;;5056199;27;34219;-78
2022/07/10 06:54:22;;;;;;;4.03;0.60;;;28.30;1.00;;;;;;5066111;28;34214;-78
2022/07/10 06:56:47;;;;;;;1.00;0.60;;;28.20;1.00;;;;;;5036489;28;34228;-79
2022/07/10 06:59:13;;;;;;;0.77;0.60;;;28.10;1.00;;;;;;5018626;28;35568;-78
2022/07/10 07:01:39;;;;;;;2.05;0.63;;;28.10;1.00;;;;;;5021187;28;34556;-80
2022/07/10 07:04:05;;;;;;;0.95;0.57;;;27.80;1.00;;;;;;5064961;27;34108;-78
2022/07/10 07:06:31;;;;;;;4.35;0.70;;;27.60;1.00;;;;;;5089528;28;34645;-78
2022/07/10 07:08:57;;;;;;;1.05;0.70;;;27.10;1.00;;;;;;5019273;28;35790;-78
2022/07/10 07:11:23;;;;;;;1.25;0.60;;;26.40;1.00;;;;;;5008324;28;34170;-78
2022/07/10 07:13:49;;;;;;;1.10;0.75;;;25.90;1.00;;;;;;5004495;28;34096;-78
2022/07/10 07:16:18;;;;;;;1.85;0.60;;;25.40;1.00;;;;;;5021020;28;34434;-79
2022/07/10 07:18:51;;;;;;;2.35;0.70;;;25.60;1.00;;;;;;5041100;28;36708;-79
2022/07/10 07:23:58;;;;;;;0.90;0.55;;;25.40;1.00;;;;;;5027926;28;34086;-78
2022/07/10 07:26:24;;;;;;;1.08;0.60;;;25.10;1.00;;;;;;5052719;28;33729;-80
2022/07/10 07:28:50;;;;;;;3.42;0.60;;;24.70;1.00;;;;;;5018413;28;35636;-78
2022/07/10 07:31:17;;;;;;;2.83;0.80;;;24.30;1.00;;;;;;5023132;28;34212;-77
2022/07/10 07:33:43;;;;;;;14.15;6.85;;;24.00;1.00;;;;;;5071019;28;34271;-77
2022/07/10 07:36:09;;;;;;;4.78;1.20;;;23.70;1.00;;;;;;5107266;28;34570;-79
2022/07/10 07:38:35;;;;;;;1.63;0.60;;;23.50;1.00;;;;;;5062337;28;36535;-77
2022/07/10 07:41:04;;;;;;;3.03;0.70;;;23.90;1.00;;;;;;5006989;28;34323;-77
2022/07/10 07:43:30;;;;;;;4.43;0.98;;;23.90;1.00;;;;;;5086711;28;34073;-79
2022/07/10 07:45:56;;;;;;;3.97;0.60;;;23.80;1.00;;;;;;5108700;27;34072;-77
2022/07/10 07:48:22;;;;;;;4.10;0.70;;;24.00;1.00;;;;;;5039597;27;34994;-79
2022/07/10 07:50:48;;;;;;;1.90;0.73;;;24.30;1.00;;;;;;5025651;28;34179;-78
2022/07/10 07:53:14;;;;;;;3.97;0.70;;;24.70;1.00;;;;;;5023693;28;34340;-78
2022/07/10 07:55:40;;;;;;;1.02;0.70;;;25.10;1.00;;;;;;5009096;28;34115;-77
2022/07/10 07:58:06;;;;;;;2.95;0.60;;;25.30;1.00;;;;;;5020485;28;35871;-77
2022/07/10 08:00:32;;;;;;;1.90;0.65;;;25.40;1.00;;;;;;5012185;28;34222;-77
2022/07/10 08:03:00;;;;;;;0.60;0.60;;;25.40;1.00;;;;;;5100765;27;34198;-78
2022/07/10 08:05:26;;;;;;;4.47;0.70;;;25.40;1.00;;;;;;5053108;27;34158;-78
2022/07/10 08:07:54;;;;;;;2.58;0.70;;;25.20;1.00;;;;;;5000410;28;35695;-78
2022/07/10 08:10:22;;;;;;;1.00;0.50;;;24.90;1.00;;;;;;5013371;28;34261;-78
2022/07/10 08:12:49;;;;;;;1.30;0.70;;;24.60;1.00;;;;;;5031155;28;34232;-78
2022/07/10 08:15:17;;;;;;;4.80;0.80;;;24.50;1.00;;;;;;4993592;28;34086;-76
2022/07/10 08:17:43;;;;;;;2.38;0.70;;;24.30;1.00;;;;;;5017738;28;36313;-79
2022/07/10 08:20:12;;;;;;;1.83;0.45;;;24.50;1.00;;;;;;5013226;28;34177;-79
2022/07/10 08:22:40;;;;;;;1.33;0.65;;;25.10;1.00;;;;;;5020358;27;34374;-78
2022/07/10 08:25:06;;;;;;;2.45;0.80;;;25.40;1.00;;;;;;5018091;28;34076;-79
2022/07/10 08:27:32;;;;;;;0.98;0.65;;;25.60;1.00;;;;;;5055130;28;35553;-77
2022/07/10 08:29:58;;;;;;;0.90;0.68;;;25.40;1.00;;;;;;5011858;28;34285;-77
2022/07/10 08:32:24;;;;;;;2.50;1.13;;;25.30;1.00;;;;;;5007382;28;34212;-76
2022/07/10 08:34:50;;;;;;;1.98;0.73;;;25.60;1.00;;;;;;5005456;28;34175;-78
2022/07/10 08:37:16;;;;;;;1.98;0.68;;;25.90;1.00;;;;;;5019675;28;35792;-79
2022/07/10 08:39:42;;;;;;;1.45;0.70;;;26.10;1.00;;;;;;5037672;28;34237;-78
2022/07/10 08:42:11;;;;;;;1.35;0.60;;;26.30;1.00;;;;;;5013893;27;34216;-78
2022/07/10 08:44:37;;;;;;;2.60;0.90;;;26.50;1.00;;;;;;5000172;28;34505;-78
2022/07/10 08:47:04;;;;;;;2.55;0.80;;;26.50;1.00;;;;;;5014452;28;34243;-77
2022/07/10 08:49:31;;;;;;;2.88;0.82;;;26.30;1.00;;;;;;5010023;28;34181;-78
2022/07/10 08:52:02;;;;;;;1.77;0.60;;;26.30;1.00;;;;;;5032490;28;34279;-78
2022/07/10 08:54:30;;;;;;;1.67;0.60;;;26.20;1.00;;;;;;5007260;28;34211;-78
2022/07/10 08:56:57;;;;;;;1.15;0.85;;;26.00;1.00;;;;;;5011978;28;35868;-77
2022/07/10 08:59:24;;;;;;;1.05;0.77;;;25.60;1.00;;;;;;4997329;28;35030;-78
2022/07/10 09:01:50;;;;;;;1.05;0.70;;;25.40;1.00;;;;;;5009016;28;34330;-77
2022/07/10 09:04:19;;;;;;;3.83;0.93;;;25.20;1.00;;;;;;5008176;28;34449;-80
2022/07/10 09:06:45;;;;;;;3.88;0.90;;;24.90;1.00;;;;;;4999455;28;35692;-77
2022/07/10 09:09:11;;;;;;;2.25;0.70;;;24.50;1.00;;;;;;5000944;28;34200;-78
2022/07/10 09:11:42;;;;;;;7.32;0.90;;;24.70;1.00;;;;;;5001912;28;34089;-77
2022/07/10 09:14:11;;;;;;;0.82;0.70;;;24.70;1.00;;;;;;5000740;28;34502;-78
2022/07/10 09:16:39;;;;;;;2.50;0.70;;;24.90;1.00;;;;;;4995944;28;36620;-78
2022/07/10 09:19:22;;;;;;;0.98;0.55;;;25.00;1.00;;;;;;5019328;28;34280;-77
2022/07/10 09:21:50;;;;;;;2.05;0.80;;;24.90;1.00;;;;;;5021420;28;34447;-77
2022/07/10 09:24:19;;;;;;;2.15;0.70;;;24.90;1.00;;;;;;5002425;28;34390;-77
2022/07/10 09:27:00;;;;;;;1.75;0.85;;;24.90;1.00;;;;;;5033746;28;36215;-76
2022/07/10 09:29:26;;;;;;;1.23;0.70;;;24.80;1.00;;;;;;5003945;28;34456;-77
2022/07/10 09:31:54;;;;;;;3.08;0.77;;;24.90;1.00;;;;;;5009605;28;34368;-78
2022/07/10 09:34:38;;;;;;;0.65;0.65;;;24.90;1.00;;;;;;5020522;28;34539;-77
2022/07/10 09:37:28;;;;;;;1.95;0.68;;;24.90;1.00;;;;;;5015854;28;35749;-77
2022/07/10 09:39:59;;;;;;;2.78;0.80;;;25.00;1.00;;;;;;5041005;27;34182;-77
2022/07/10 09:42:36;;;;;;;1.92;0.63;;;24.80;1.00;;;;;;4999590;28;34328;-77
2022/07/10 09:45:16;;;;;;;3.38;0.95;;;24.60;1.00;;;;;;5020559;28;34146;-78
2022/07/10 09:47:55;;;;;;;2.58;0.75;;;24.50;1.00;;;;;;5003814;28;35624;-77
2022/07/10 09:50:28;;;;;;;1.58;0.70;;;24.50;1.00;;;;;;5051774;28;34375;-77
2022/07/10 09:52:56;;;;;;;1.55;0.68;;;24.40;1.00;;;;;;5013033;28;34246;-78
2022/07/10 09:55:26;;;;;;;2.70;0.80;;;24.40;1.00;;;;;;5008421;28;34239;-79
2022/07/10 09:57:55;;;;;;;1.77;0.90;;;24.40;1.00;;;;;;4997495;28;35710;-78
2022/07/10 10:00:25;;;;;;;1.98;0.68;;;24.40;1.00;;;;;;4997911;28;34282;-78
2022/07/10 10:03:03;;;;;;;0.93;0.70;;;24.40;1.00;;;;;;5004445;28;34421;-78
2022/07/10 10:05:36;;;;;;;0.80;0.60;;;24.40;1.00;;;;;;5004758;28;34535;-79
2022/07/10 10:08:26;;;;;;;2.20;0.90;;;24.40;1.00;;;;;;5003679;28;35765;-78
2022/07/10 10:10:53;;;;;;;1.88;0.70;;;24.40;1.00;;;;;;5006229;28;34223;-76
2022/07/10 10:13:21;;;;;;;1.13;0.68;;;24.10;1.00;;;;;;5010534;28;34131;-77
2022/07/10 10:15:50;;;;;;;3.15;0.80;;;24.10;1.00;;;;;;5000894;28;34086;-78
2022/07/10 10:18:19;;;;;;;2.80;0.60;;;24.20;1.00;;;;;;5033606;28;35084;-77
2022/07/10 10:20:47;;;;;;;2.03;0.90;;;24.30;1.00;;;;;;5046433;28;34505;-77
2022/07/10 10:23:17;;;;;;;1.00;0.70;;;24.30;1.00;;;;;;5050961;28;34294;-76
2022/07/10 10:25:44;;;;;;;1.55;0.70;;;24.30;1.00;;;;;;5018287;28;34099;-76
2022/07/10 10:28:12;;;;;;;2.30;0.88;;;24.40;1.00;;;;;;5009413;28;35918;-77
2022/07/10 10:30:41;;;;;;;2.10;0.80;;;24.60;1.00;;;;;;5002491;28;34100;-77
2022/07/10 10:33:39;;;;;;;1.38;0.70;;;24.70;1.00;;;;;;5006043;28;34140;-76
2022/07/10 10:36:06;;;;;;;3.53;0.82;;;24.70;1.00;;;;;;5021860;28;34462;-76
2022/07/10 10:39:07;;;;;;;2.97;0.85;;;24.80;1.00;;;;;;5021392;28;36571;-76
2022/07/10 10:41:46;;;;;;;1.10;0.60;;;25.20;1.00;;;;;;5007509;28;34318;-77
2022/07/10 10:44:26;;;;;;;1.02;0.63;;;25.40;1.00;;;;;;5017556;28;34531;-78
2022/07/10 10:47:01;;;;;;;2.67;0.90;;;25.70;1.00;;;;;;5037851;28;34233;-77
2022/07/10 10:49:47;;;;;;;1.73;0.80;;;25.90;1.00;;;;;;5017188;28;36084;-77
2022/07/10 10:52:15;;;;;;;1.92;0.80;;;25.90;1.00;;;;;;5011954;28;34323;-77
2022/07/10 10:55:03;;;;;;;0.77;0.70;;;25.80;1.00;;;;;;5016312;28;34246;-78
2022/07/10 10:57:43;;;;;;;1.70;0.73;;;26.10;1.00;;;;;;5014343;28;34461;-77
2022/07/10 11:00:14;;;;;;;2.22;0.75;;;26.20;1.00;;;;;;5003260;28;36774;-77
2022/07/10 11:02:41;;;;;;;2.25;0.73;;;26.20;1.00;;;;;;5003470;28;34234;-79
2022/07/10 11:05:41;;;;;;;1.13;0.75;;;26.00;1.00;;;;;;5007533;28;34324;-78
2022/07/10 11:08:07;;;;;;;10.32;1.00;;;25.90;1.00;;;;;;5000259;28;34384;-77
2022/07/10 11:10:37;;;;;;;4.25;0.65;;;26.00;1.00;;;;;;5013087;27;34428;-77
2022/07/10 11:13:05;;;;;;;5.07;0.98;;;26.30;1.00;;;;;;5014074;28;34209;-77
2022/07/10 11:15:32;;;;;;;1.88;0.80;;;26.70;1.00;;;;;;5013244;28;34130;-78
2022/07/10 11:18:05;;;;;;;2.03;0.77;;;27.00;1.00;;;;;;5015052;28;34317;-77
2022/07/10 11:20:33;;;;;;;0.80;0.60;;;27.00;1.00;;;;;;5016902;27;35880;-80
2022/07/10 11:23:29;;;;;;;0.77;0.60;;;26.90;1.00;;;;;;5006789;28;34308;-75
2022/07/10 11:26:11;;;;;;;1.70;0.70;;;26.70;1.00;;;;;;5006255;28;34199;-76
2022/07/10 11:28:51;;;;;;;1.88;0.70;;;26.70;1.00;;;;;;5007250;28;34365;-77
2022/07/10 11:31:18;;;;;;;4.75;0.90;;;26.70;1.00;;;;;;5006171;28;34324;-78
2022/07/10 11:33:48;;;;;;;0.73;0.70;;;26.60;1.00;;;;;;5002303;28;34460;-78
2022/07/10 11:36:17;;;;;;;1.05;0.80;;;26.70;1.00;;;;;;5002744;28;34206;-76
2022/07/10 11:38:45;;;;;;;1.40;0.82;;;26.90;1.00;;;;;;4994976;28;34628;-76
2022/07/10 11:41:14;;;;;;;1.08;0.70;;;26.70;1.00;;;;;;5042710;28;34093;-76
2022/07/10 11:43:57;;;;;;;1.30;0.77;;;26.60;1.00;;;;;;5010814;28;34337;-77
2022/07/10 11:46:26;;;;;;;3.25;0.70;;;26.50;1.00;;;;;;5040732;27;34207;-76
2022/07/10 11:48:53;;;;;;;3.95;0.70;;;26.40;1.00;;;;;;5022221;28;34166;-76
2022/07/10 11:51:29;;;;;;;5.07;0.80;;;26.30;1.00;;;;;;5005688;28;36537;-77
2022/07/10 11:54:01;;;;;;;0.50;0.50;;;26.30;1.00;;;;;;5008422;27;34130;-77
2022/07/10 11:56:32;;;;;;;0.65;0.47;;;26.20;1.00;;;;;;5036185;28;34242;-77
2022/07/10 11:59:03;;;;;;;0.77;0.70;;;26.20;1.00;;;;;;4986857;28;34402;-77
2022/07/10 12:01:32;;;;;;;0.55;0.55;;;25.90;1.00;;;;;;5002260;28;36785;-77
2022/07/10 12:04:02;;;;;;;0.80;0.63;;;25.90;1.00;;;;;;4988429;28;34527;-76
2022/07/10 12:06:30;;;;;;;4.60;1.00;;;25.90;1.00;;;;;;5020087;28;34317;-77
2022/07/10 12:09:00;;;;;;;1.92;0.80;;;25.90;1.00;;;;;;5005262;28;34353;-77
2022/07/10 12:11:26;;;;;;;2.38;0.63;;;25.80;1.00;;;;;;5006302;28;35356;-78
2022/07/10 12:13:54;;;;;;;0.50;0.50;;;25.60;1.00;;;;;;5021385;28;34219;-77
2022/07/10 12:16:21;;;;;;;1.02;0.60;;;25.60;1.00;;;;;;5006599;28;34140;-79
2022/07/10 12:18:48;;;;;;;1.40;0.57;;;25.70;1.00;;;;;;5019425;28;34197;-79
2022/07/10 12:21:15;;;;;;;1.02;0.55;;;25.80;1.00;;;;;;5053875;28;37084;-78
2022/07/10 12:23:43;;;;;;;0.75;0.60;;;25.90;1.00;;;;;;5023499;28;34432;-79
2022/07/10 12:26:11;;;;;;;2.08;0.47;;;25.80;1.00;;;;;;5027093;28;34362;-80
2022/07/10 12:28:54;;;;;;;2.17;0.57;;;25.80;1.00;;;;;;5021045;28;34059;-78
2022/07/10 12:31:22;;;;;;;0.60;0.60;;;25.80;1.00;;;;;;5012787;28;35920;-78
2022/07/10 12:33:57;;;;;;;0.98;0.60;;;25.80;1.00;;;;;;5008167;28;34253;-79
2022/07/10 12:36:27;;;;;;;1.02;0.60;;;25.70;1.00;;;;;;5045485;27;34353;-79
2022/07/10 12:38:57;;;;;;;1.58;0.60;;;25.80;1.00;;;;;;5016716;28;34115;-77
2022/07/10 12:41:25;;;;;;;0.93;0.63;;;25.90;1.00;;;;;;4996902;28;36291;-78
2022/07/10 12:43:52;;;;;;;0.63;0.50;;;26.00;1.00;;;;;;5014949;28;34260;-77
2022/07/10 12:46:21;;;;;;;0.70;0.50;;;25.90;1.00;;;;;;4995546;28;34256;-78
2022/07/10 12:49:03;;;;;;;2.42;0.60;;;26.00;1.00;;;;;;4999487;28;34418;-78
2022/07/10 12:51:33;;;;;;;0.40;0.40;;;26.00;1.00;;;;;;5013332;28;34380;-76
2022/07/10 12:53:59;;;;;;;0.88;0.50;;;26.00;1.00;;;;;;5014074;27;34210;-77
2022/07/10 12:56:30;;;;;;;1.23;0.70;;;26.00;1.00;;;;;;5010999;28;34228;-77
2022/07/10 12:58:57;;;;;;;2.22;0.57;;;26.10;1.00;;;;;;5032496;27;34473;-77
2022/07/10 13:01:24;;;;;;;1.30;0.52;;;26.20;1.00;;;;;;5012791;28;35989;-77
2022/07/10 13:03:58;;;;;;;0.70;0.45;;;26.40;1.00;;;;;;5014326;28;34199;-76
2022/07/10 13:06:29;;;;;;;0.85;0.60;;;26.40;1.00;;;;;;5015067;28;34403;-77
2022/07/10 13:08:55;;;;;;;0.68;0.50;;;26.50;1.00;;;;;;5010133;28;34314;-78